Flight Track Log - Related Links

Times and Time Zones

All times are in EDT time to prevent confusion due to time zone crossing. See the SWA4195 flight status page for this flight to view local times or setup timezone preferences in your user account.

Time Position Orientation Groundspeed Altitude Reporting Facility
EDT Latitude Longitude Course Direction KTS MPH feet Rate Location/Type
Fri 09:41:37 PM 32.8333 -96.8333 140° Southeast 147 169 1,600  Level Dallas / Fort Worth TRACON
Fri 09:42:07 PM 32.8167 -96.8167 140° Southeast 154 177 2,600 3,000 Climbing Dallas / Fort Worth TRACON
Fri 09:43:07 PM 32.8333 -96.7667 68° East 256 295 6,100 3,300 Climbing Dallas / Fort Worth TRACON
Fri 09:44:07 PM 32.9000 -96.7667 360° North 306 352 9,200 2,705 Climbing Dallas / Fort Worth TRACON
Fri 09:46:00 PM 33.0928 -96.7886 355° North 386 444 13,900 2,532 Climbing Fort Worth Center
Fri 09:47:00 PM 33.1908 -96.7978 356° North 391 450 16,500 2,900 Climbing Fort Worth Center
Fri 09:48:00 PM 33.3183 -96.8119 355° North 409 471 19,700 2,550 Climbing Fort Worth Center
Fri 09:49:00 PM 33.4289 -96.8186 357° North 431 496 21,600 2,100 Climbing Fort Worth Center
Fri 09:50:00 PM 33.5478 -96.7631 21° North 444 511 23,900 2,100 Climbing Fort Worth Center
Fri 09:51:00 PM 33.6619 -96.6872 29° Northeast 451 519 25,800 2,000 Climbing Fort Worth Center
Fri 09:52:00 PM 33.7828 -96.6139 27° Northeast 462 532 27,900 1,900 Climbing Fort Worth Center
Fri 09:53:00 PM 33.8989 -96.5350 29° Northeast 473 544 29,600 1,900 Climbing Fort Worth Center
Fri 09:54:00 PM 34.0236 -96.4611 26° Northeast 478 550 31,700 2,250 Climbing Fort Worth Center
Fri 09:55:00 PM 34.1419 -96.3697 33° Northeast 471 542 34,100 1,650 Climbing Fort Worth Center
Fri 09:56:00 PM 34.2497 -96.2778 35° Northeast 465 535 35,000 450 Climbing Fort Worth Center
Fri 09:57:00 PM 34.3572 -96.1883 34° Northeast 465 535 35,000  Level Fort Worth Center
Fri 09:58:00 PM 34.4689 -96.0961 34° Northeast 465 535 35,000  Level Fort Worth Center
Fri 09:59:00 PM 34.5744 -96.0114 33° Northeast 465 535 35,000  Level Fort Worth Center
Fri 10:00:00 PM 34.6819 -95.9186 35° Northeast 460 529 35,000  Level Fort Worth Center
Fri 10:01:00 PM 34.7892 -95.8283 35° Northeast 460 529 35,000  Level Fort Worth Center
Fri 10:02:00 PM 34.8967 -95.7350 35° Northeast 460 529 35,000 488 Level Fort Worth Center
Fri 10:03:40 PM 35.0700 -95.5742 37° Northeast 471 542 36,300 1,081 Climbing Kansas City Center
Fri 10:04:41 PM 35.1725 -95.4769 38° Northeast 468 539 37,900 1,317 Climbing Kansas City Center
Fri 10:05:43 PM 35.2739 -95.3806 38° Northeast 464 534 39,000 537 Climbing Kansas City Center
Fri 10:06:44 PM 35.3783 -95.2814 38° Northeast 469 540 39,000  Level Kansas City Center
Fri 10:07:51 PM 35.5050 -95.1644 37° Northeast 466 536 39,000  Level Memphis Center
Fri 10:08:51 PM 35.6092 -95.0606 39° Northeast 472 543 39,000  Level Memphis Center
Fri 10:09:48 PM 35.6906 -94.9825 38° Northeast 476 548 39,000  Level Kansas City Center
Fri 10:10:49 PM 35.7950 -94.8817 38° Northeast 477 549 39,000  Level Kansas City Center
Fri 10:11:50 PM 35.9200 -94.7614 38° Northeast 477 549 39,000  Level Kansas City Center
Fri 10:12:51 PM 36.0231 -94.6594 39° Northeast 477 549 39,000  Level Kansas City Center
Fri 10:13:52 PM 36.1272 -94.5578 38° Northeast 477 549 39,000  Level Kansas City Center
Fri 10:14:54 PM 36.2319 -94.4567 38° Northeast 478 550 39,000  Level Kansas City Center
Fri 10:15:55 PM 36.3356 -94.3553 38° Northeast 478 550 39,000  Level Kansas City Center
Fri 10:16:56 PM 36.4389 -94.2547 38° Northeast 475 547 39,000  Level Kansas City Center
Fri 10:17:57 PM 36.5406 -94.1525 39° Northeast 473 544 39,000  Level Kansas City Center
Fri 10:18:58 PM 36.6428 -94.0508 39° Northeast 472 543 39,000  Level Kansas City Center
Fri 10:19:59 PM 36.7458 -93.9503 38° Northeast 471 542 39,000  Level Kansas City Center
Fri 10:21:01 PM 36.8689 -93.8272 39° Northeast 471 542 39,000  Level Kansas City Center
Fri 10:22:02 PM 36.9622 -93.7283 40° Northeast 465 535 39,000  Level Kansas City Center
Fri 10:23:03 PM 37.0661 -93.6272 38° Northeast 468 539 39,000  Level Kansas City Center
Fri 10:24:04 PM 37.1678 -93.5225 39° Northeast 470 541 39,000  Level Kansas City Center
Fri 10:25:05 PM 37.2714 -93.4211 38° Northeast 471 542 39,000  Level Kansas City Center
Fri 10:26:06 PM 37.3733 -93.3178 39° Northeast 469 540 39,000  Level Kansas City Center
Fri 10:27:07 PM 37.4681 -93.2047 43° Northeast 469 540 39,000  Level Kansas City Center
Fri 10:28:08 PM 37.5642 -93.0919 43° Northeast 468 539 39,000  Level Kansas City Center
Fri 10:29:10 PM 37.6614 -92.9808 42° Northeast 470 541 39,000  Level Kansas City Center
Fri 10:30:11 PM 37.7567 -92.8678 43° Northeast 468 539 39,000  Level Kansas City Center
Fri 10:31:12 PM 37.8542 -92.7525 43° Northeast 475 547 39,000  Level Kansas City Center
Fri 10:32:13 PM 37.9533 -92.6025 50° Northeast 488 562 39,000 -934 Level Kansas City Center
Fri 10:33:14 PM 38.0283 -92.4644 55° Northeast 481 554 37,100 -2,557 Descending Kansas City Center
Fri 10:34:15 PM 38.1069 -92.3269 54° Northeast 499 574 33,800 -3,443 Descending Kansas City Center
Fri 10:35:16 PM 38.1806 -92.1822 57° Northeast 491 565 30,100 -3,197 Descending Kansas City Center
Fri 10:36:17 PM 38.2517 -92.0475 56° Northeast 491 565 27,300 -2,803 Descending Kansas City Center
Fri 10:37:18 PM 38.3261 -91.9058 56° Northeast 485 558 24,400 -2,311 Descending Kansas City Center
Fri 10:38:19 PM 38.3953 -91.7758 56° Northeast 449 517 22,600 -2,262 Descending Kansas City Center
Fri 10:39:20 PM 38.4744 -91.6256 56° Northeast 427 491 19,800 -2,459 Descending Kansas City Center
Fri 10:40:21 PM 38.5369 -91.5039 57° Northeast 414 476 17,600 -2,213 Descending Kansas City Center
Fri 10:41:22 PM 38.5981 -91.3889 56° Northeast 397 457 15,300 -2,115 Descending Kansas City Center
Fri 10:42:23 PM 38.6481 -91.2931 56° Northeast 387 445 13,300 -2,016 Descending Kansas City Center
Fri 10:43:24 PM 38.6944 -91.1775 63° Northeast 377 434 11,200 -1,672 Descending Kansas City Center
Fri 10:44:25 PM 38.7217 -91.0439 75° East 329 379 9,900 -1,377 Descending Kansas City Center
Fri 10:45:26 PM 38.7650 -90.9486 60° Northeast 312 359 8,400 -1,131 Descending Kansas City Center
Fri 10:46:27 PM 38.8036 -90.8642 60° Northeast 283 326 7,600 -1,131 Descending Kansas City Center
Fri 10:47:28 PM 38.8183 -90.7811 77° East 246 283 6,100 -1,328 Descending Kansas City Center
Fri 10:48:29 PM 38.8283 -90.6989 81° East 237 273 4,900 -1,033 Descending Kansas City Center
Fri 10:49:30 PM 38.8186 -90.6258 100° East 215 247 4,000 -934 Descending Kansas City Center
Fri 10:50:31 PM 38.8106 -90.5569 99° East 204 235 3,000 -836 Descending Kansas City Center
Fri 10:51:32 PM 38.8025 -90.4928 99° East 192 221 2,300 -639 Descending Kansas City Center
Fri 10:52:33 PM 38.7864 -90.4456 114° Southeast 162 186 1,700 -590 Descending Kansas City Center
Fri 10:53:34 PM 38.7694 -90.4100 121° Southeast 134 154 1,100 -590 Descending Kansas City Center
Fri 10:54:35 PM 38.7511 -90.3728 122° Southeast 124 143 500 -590 Descending Kansas City Center

Login

Don't have an account? Register now (free) for customized features, flight alerts, and more!